Time;durP1;ratioP1;P1;durP2;ratioP2;P2;SDS_P1;SDS_P2;PMS_P1;PMS_P2;Temp;Humidity;BMP_temperature;BMP_pressure;BME280_temperature;BME280_humidity;BME280_pressure;Samples;Min_cycle;Max_cycle;Signal;HPM_P1;HPM_P2
2021/06/28 04:02:29;;;;;;;4.10;3.70;;;21.40;99.90;;;;;;5041687;23;20489;-67
2021/06/28 04:04:55;;;;;;;4.67;4.10;;;21.30;99.90;;;;;;4975805;28;20596;-66
2021/06/28 04:07:22;;;;;;;5.50;4.03;;;21.20;99.90;;;;;;4974937;28;20459;-66
2021/06/28 04:09:49;;;;;;;4.50;4.20;;;21.20;99.90;;;;;;4975438;28;20459;-66
2021/06/28 04:12:15;;;;;;;3.97;3.77;;;21.10;99.90;;;;;;4975298;28;20475;-66
2021/06/28 04:14:42;;;;;;;3.73;3.53;;;21.10;99.90;;;;;;4975197;28;20459;-67
2021/06/28 04:17:09;;;;;;;4.67;4.33;;;21.10;99.90;;;;;;4975338;28;20798;-66
2021/06/28 04:19:38;;;;;;;4.50;4.20;;;21.10;99.90;;;;;;4975051;28;20455;-68
2021/06/28 04:22:05;;;;;;;3.80;3.53;;;21.10;99.90;;;;;;4975547;28;20478;-68
2021/06/28 04:24:32;;;;;;;4.13;3.50;;;21.10;99.90;;;;;;4979275;28;20500;-68
2021/06/28 04:26:58;;;;;;;4.37;4.07;;;21.20;99.90;;;;;;4979252;28;20458;-68
2021/06/28 04:29:25;;;;;;;3.90;3.60;;;21.20;99.90;;;;;;4979769;28;20458;-68
2021/06/28 04:31:52;;;;;;;4.57;4.27;;;21.10;99.90;;;;;;4978955;28;20475;-66
2021/06/28 04:34:19;;;;;;;4.90;3.80;;;21.10;99.90;;;;;;4978888;28;20463;-66
2021/06/28 04:36:47;;;;;;;4.33;3.83;;;21.10;99.90;;;;;;4979068;28;20454;-66
2021/06/28 04:39:14;;;;;;;4.73;4.43;;;21.20;99.90;;;;;;4979172;28;20454;-68
2021/06/28 04:41:40;;;;;;;5.23;4.40;;;21.20;99.90;;;;;;4979005;28;20481;-68
2021/06/28 04:44:07;;;;;;;4.30;4.00;;;21.20;99.90;;;;;;4978458;28;21000;-67
2021/06/28 04:46:34;;;;;;;3.90;3.70;;;21.30;99.90;;;;;;4978465;28;20822;-67
2021/06/28 04:49:00;;;;;;;4.47;4.17;;;21.30;99.90;;;;;;4978881;28;20458;-68
2021/06/28 04:51:27;;;;;;;5.00;4.60;;;21.30;99.90;;;;;;4978619;28;20474;-67
2021/06/28 04:53:55;;;;;;;4.90;3.80;;;21.40;99.90;;;;;;4978743;28;20549;-68
2021/06/28 04:56:22;;;;;;;4.23;3.90;;;21.30;99.90;;;;;;4978216;28;20998;-67
2021/06/28 04:58:49;;;;;;;4.83;4.53;;;21.30;99.90;;;;;;4978403;28;20458;-66
2021/06/28 05:01:15;;;;;;;4.20;3.90;;;21.40;99.90;;;;;;4978111;28;20486;-65
2021/06/28 05:03:42;;;;;;;4.70;4.40;;;21.50;99.90;;;;;;4978505;28;20501;-66
2021/06/28 05:06:09;;;;;;;5.60;4.80;;;21.60;99.90;;;;;;4978455;28;20458;-67
2021/06/28 05:08:35;;;;;;;4.57;4.20;;;21.70;99.90;;;;;;4978477;28;20446;-66
2021/06/28 05:11:04;;;;;;;4.37;4.07;;;21.70;99.90;;;;;;4978344;28;20485;-67
2021/06/28 05:13:30;;;;;;;3.90;3.67;;;21.70;99.90;;;;;;4978261;28;20450;-66
2021/06/28 05:15:57;;;;;;;4.20;3.90;;;21.80;99.90;;;;;;4978970;28;20465;-67
2021/06/28 05:18:24;;;;;;;3.90;3.60;;;21.90;99.90;;;;;;4978359;28;20454;-67
2021/06/28 05:20:50;;;;;;;7.60;4.33;;;22.00;99.90;;;;;;4978217;28;20481;-67
2021/06/28 05:23:19;;;;;;;4.90;4.37;;;22.10;99.90;;;;;;4978077;28;20481;-66
2021/06/28 05:25:46;;;;;;;4.80;4.07;;;22.10;99.90;;;;;;4978133;28;20973;-67
2021/06/28 05:28:15;;;;;;;5.80;4.53;;;22.20;99.90;;;;;;4978423;28;20447;-67
2021/06/28 05:30:42;;;;;;;4.73;4.30;;;22.40;99.90;;;;;;4978529;28;20482;-66
2021/06/28 05:33:08;;;;;;;5.33;3.90;;;22.40;99.90;;;;;;4978513;28;20439;-67
2021/06/28 05:35:36;;;;;;;5.00;3.93;;;22.50;99.90;;;;;;4978428;28;20856;-68
2021/06/28 05:38:02;;;;;;;5.77;4.00;;;22.60;99.90;;;;;;4978791;28;20454;-67
2021/06/28 05:40:29;;;;;;;3.93;3.73;;;22.70;99.90;;;;;;4978085;28;20461;-67
2021/06/28 05:42:56;;;;;;;3.93;3.63;;;22.80;99.90;;;;;;4978462;28;20482;-68
2021/06/28 05:45:24;;;;;;;6.33;4.73;;;22.90;99.90;;;;;;4978226;28;20466;-68
2021/06/28 05:47:51;;;;;;;4.53;4.23;;;23.00;99.90;;;;;;4977981;28;20842;-68
2021/06/28 05:50:19;;;;;;;5.40;4.00;;;23.10;99.90;;;;;;4978267;28;20462;-68
2021/06/28 05:52:46;;;;;;;5.10;4.60;;;23.30;99.90;;;;;;4977943;28;20541;-66
2021/06/28 05:55:14;;;;;;;4.57;4.10;;;23.40;99.90;;;;;;4978157;28;20462;-66
2021/06/28 05:57:41;;;;;;;4.70;4.40;;;23.60;99.90;;;;;;4978059;28;20449;-68
2021/06/28 06:00:10;;;;;;;4.90;4.60;;;23.80;99.90;;;;;;4977142;28;20993;-68
2021/06/28 06:02:38;;;;;;;4.20;4.00;;;23.90;99.90;;;;;;4977349;28;20457;-67
2021/06/28 06:05:08;;;;;;;4.47;4.17;;;23.90;99.90;;;;;;4977686;28;20454;-66
2021/06/28 06:07:35;;;;;;;5.63;3.67;;;24.00;99.90;;;;;;4977416;28;20458;-67
2021/06/28 06:10:02;;;;;;;6.50;4.30;;;24.20;99.90;;;;;;4977342;28;20995;-68
2021/06/28 06:12:29;;;;;;;4.10;3.70;;;24.50;99.90;;;;;;4977599;28;20478;-66
2021/06/28 06:14:55;;;;;;;4.10;3.70;;;24.70;99.90;;;;;;4977274;28;20458;-67
2021/06/28 06:17:22;;;;;;;4.50;4.10;;;25.00;99.90;;;;;;4977177;28;20454;-68
2021/06/28 06:19:50;;;;;;;4.00;3.70;;;25.10;99.90;;;;;;4977148;28;20822;-68
2021/06/28 06:22:17;;;;;;;3.20;3.00;;;25.20;99.90;;;;;;4977125;28;20479;-68
2021/06/28 06:24:44;;;;;;;4.47;3.20;;;25.40;99.90;;;;;;4977352;28;20486;-68
2021/06/28 06:27:10;;;;;;;3.97;3.53;;;25.60;99.90;;;;;;4977312;28;20459;-68
2021/06/28 06:29:37;;;;;;;6.53;3.23;;;25.80;99.90;;;;;;4977341;28;20457;-69
2021/06/28 06:32:05;;;;;;;3.50;3.30;;;25.90;99.90;;;;;;4976795;28;20985;-67
2021/06/28 06:34:32;;;;;;;3.10;2.90;;;25.90;99.90;;;;;;4976512;28;20463;-68
2021/06/28 06:37:00;;;;;;;3.27;3.07;;;26.00;99.90;;;;;;4976831;28;20184;-67
2021/06/28 06:39:27;;;;;;;3.60;3.17;;;26.00;99.90;;;;;;4976571;28;20466;-67
2021/06/28 06:41:53;;;;;;;2.83;2.43;;;26.00;99.90;;;;;;4976626;28;20474;-67
2021/06/28 06:44:20;;;;;;;3.47;3.27;;;26.00;99.90;;;;;;4976361;28;20474;-67
2021/06/28 06:46:47;;;;;;;4.47;4.17;;;26.30;99.90;;;;;;4976190;28;20942;-67
2021/06/28 06:49:13;;;;;;;4.00;3.57;;;26.30;99.90;;;;;;4977090;28;20455;-68
2021/06/28 06:51:41;;;;;;;4.23;3.93;;;26.60;99.90;;;;;;4976763;28;20485;-68
2021/06/28 06:54:09;;;;;;;6.57;3.73;;;26.70;99.90;;;;;;4977037;28;20459;-68
2021/06/28 06:56:36;;;;;;;3.53;3.33;;;27.00;99.90;;;;;;4977535;28;20482;-68
2021/06/28 06:59:03;;;;;;;3.70;3.40;;;27.00;99.90;;;;;;4977139;28;20451;-68
2021/06/28 07:01:33;;;;;;;3.00;2.80;;;26.60;99.90;;;;;;4976812;28;21020;-68
2021/06/28 07:04:00;;;;;;;3.63;3.43;;;26.70;99.90;;;;;;4986409;28;20492;-68
2021/06/28 07:06:27;;;;;;;3.03;2.83;;;27.00;99.90;;;;;;4976384;28;20445;-68
2021/06/28 07:08:54;;;;;;;2.70;2.60;;;27.50;99.90;;;;;;4976642;28;20454;-68
2021/06/28 07:11:24;;;;;;;2.80;2.60;;;27.90;99.90;;;;;;4977188;28;20808;-68
2021/06/28 07:13:51;;;;;;;2.97;2.53;;;28.50;99.90;;;;;;4976069;28;20922;-68
2021/06/28 07:16:18;;;;;;;2.57;2.37;;;29.10;99.90;;;;;;4976411;28;20458;-68
2021/06/28 07:18:45;;;;;;;2.83;2.73;;;30.00;99.90;;;;;;4976366;28;20461;-68
2021/06/28 07:21:12;;;;;;;2.77;2.57;;;30.50;99.90;;;;;;4976052;28;20475;-68
2021/06/28 07:23:39;;;;;;;2.40;2.30;;;30.90;99.90;;;;;;4976151;28;20481;-68
2021/06/28 07:26:06;;;;;;;2.40;2.30;;;31.10;99.90;;;;;;4976100;28;20461;-68
2021/06/28 07:28:34;;;;;;;2.47;2.37;;;31.70;99.90;;;;;;4976722;28;20454;-68
2021/06/28 07:31:02;;;;;;;2.40;2.30;;;32.00;98.80;;;;;;4976332;28;20474;-68
2021/06/28 07:33:31;;;;;;;2.50;2.40;;;32.30;97.90;;;;;;4975976;28;20819;-68
2021/06/28 07:35:59;;;;;;;2.70;2.50;;;32.50;96.50;;;;;;4975589;28;20950;-68
2021/06/28 07:38:26;;;;;;;2.57;2.37;;;32.60;97.30;;;;;;4975728;28;20454;-68
2021/06/28 07:40:53;;;;;;;3.20;2.73;;;32.60;96.30;;;;;;4981051;28;20478;-68
2021/06/28 07:43:20;;;;;;;2.90;2.80;;;32.60;97.40;;;;;;4984323;28;20469;-68
2021/06/28 07:45:48;;;;;;;3.07;2.80;;;33.00;96.10;;;;;;4986029;28;20454;-68
2021/06/28 07:48:15;;;;;;;2.60;2.50;;;33.10;94.30;;;;;;4985333;28;20445;-67
2021/06/28 07:50:42;;;;;;;2.77;2.57;;;33.20;94.00;;;;;;4985395;28;20470;-67
2021/06/28 07:53:09;;;;;;;2.50;2.20;;;33.30;93.30;;;;;;4984158;28;20459;-67
2021/06/28 07:55:36;;;;;;;2.93;2.80;;;33.30;92.60;;;;;;4983907;28;20968;-67
2021/06/28 07:58:04;;;;;;;2.40;2.30;;;33.10;93.50;;;;;;4983742;28;20971;-67
2021/06/28 08:00:30;;;;;;;2.17;2.07;;;33.50;90.20;;;;;;4983855;28;20458;-67
2021/06/28 08:02:58;;;;;;;2.40;2.30;;;33.80;90.10;;;;;;4984776;28;20449;-70
2021/06/28 08:05:25;;;;;;;2.57;2.47;;;33.70;94.10;;;;;;4984515;28;20462;-67
2021/06/28 08:07:52;;;;;;;2.63;2.43;;;33.70;87.20;;;;;;4983454;28;20967;-67
2021/06/28 08:10:19;;;;;;;2.57;2.37;;;33.80;85.50;;;;;;4984486;28;20509;-67
2021/06/28 08:12:47;;;;;;;4.83;2.40;;;33.40;86.20;;;;;;4983667;28;20453;-67
2021/06/28 08:15:18;;;;;;;2.13;1.93;;;33.50;86.60;;;;;;4983733;28;20454;-67
2021/06/28 08:17:45;;;;;;;2.20;2.10;;;33.80;85.60;;;;;;4984477;28;20466;-67
2021/06/28 08:20:15;;;;;;;2.37;2.20;;;33.70;83.30;;;;;;4985172;28;20454;-67
2021/06/28 08:22:44;;;;;;;2.30;2.20;;;33.70;84.40;;;;;;4985039;28;20457;-67
2021/06/28 08:25:12;;;;;;;1.93;1.93;;;33.50;87.20;;;;;;4983156;28;20536;-67
2021/06/28 08:27:40;;;;;;;3.37;2.07;;;33.30;86.90;;;;;;4976723;28;20450;-67
2021/06/28 08:30:09;;;;;;;1.83;1.73;;;33.70;87.10;;;;;;4975617;28;20461;-67
2021/06/28 08:32:36;;;;;;;2.80;2.40;;;34.10;80.80;;;;;;4976980;28;20474;-67
2021/06/28 08:35:04;;;;;;;2.20;2.10;;;34.60;78.20;;;;;;4977067;28;20455;-67
2021/06/28 08:37:32;;;;;;;2.23;2.10;;;33.80;77.40;;;;;;4975576;28;20451;-67
2021/06/28 08:39:59;;;;;;;2.50;1.80;;;33.60;77.60;;;;;;4976469;28;20458;-67
2021/06/28 08:42:26;;;;;;;2.10;1.83;;;33.90;81.80;;;;;;4977791;28;20481;-67
2021/06/28 08:44:53;;;;;;;2.50;2.20;;;33.50;75.00;;;;;;4983288;28;20485;-67
2021/06/28 08:47:21;;;;;;;1.70;1.60;;;33.70;76.10;;;;;;4977222;28;20434;-67
2021/06/28 08:49:49;;;;;;;2.43;2.23;;;34.00;74.80;;;;;;4982539;28;20458;-67
2021/06/28 08:52:18;;;;;;;1.90;1.90;;;34.20;77.30;;;;;;4984575;28;20474;-67
2021/06/28 08:54:47;;;;;;;1.80;1.70;;;34.60;75.50;;;;;;4982119;28;20450;-67
2021/06/28 08:57:14;;;;;;;2.60;2.50;;;34.40;76.20;;;;;;4983264;28;20450;-67
2021/06/28 08:59:41;;;;;;;2.10;2.00;;;34.20;74.80;;;;;;4984563;28;20454;-67
2021/06/28 09:02:08;;;;;;;1.80;1.70;;;34.50;73.30;;;;;;4983992;28;21016;-67
2021/06/28 09:04:35;;;;;;;3.77;3.60;;;33.60;74.80;;;;;;4986543;28;20627;-66
2021/06/28 09:07:17;;;;;;;2.30;2.20;;;33.80;74.20;;;;;;4987457;28;20464;-66
2021/06/28 09:09:44;;;;;;;1.90;1.80;;;33.70;71.60;;;;;;4990872;28;20446;-66
2021/06/28 09:12:15;;;;;;;1.80;1.80;;;33.80;79.40;;;;;;4991492;28;20466;-66
2021/06/28 09:14:48;;;;;;;2.17;2.07;;;33.80;75.30;;;;;;4990137;28;20434;-66
2021/06/28 09:17:34;;;;;;;2.77;1.90;;;34.70;68.50;;;;;;4988716;28;20521;-67
2021/06/28 09:20:17;;;;;;;1.50;1.50;;;35.30;67.10;;;;;;4987775;28;20430;-66
2021/06/28 09:22:46;;;;;;;1.70;1.60;;;35.00;67.80;;;;;;4984709;28;20865;-66
2021/06/28 09:25:31;;;;;;;1.73;1.73;;;35.00;69.70;;;;;;4978867;28;20482;-66
2021/06/28 09:28:00;;;;;;;1.60;1.50;;;34.80;66.50;;;;;;4979029;28;20445;-66
2021/06/28 09:30:27;;;;;;;2.20;2.10;;;34.80;67.80;;;;;;4978451;28;20461;-66
2021/06/28 09:32:56;;;;;;;2.13;2.03;;;34.70;68.90;;;;;;4978258;28;20454;-66
2021/06/28 09:35:31;;;;;;;2.47;2.27;;;35.20;70.10;;;;;;4978370;28;20453;-69
2021/06/28 09:38:01;;;;;;;1.90;1.80;;;35.60;68.30;;;;;;4978487;28;20461;-66
2021/06/28 09:40:27;;;;;;;2.17;2.07;;;36.30;65.20;;;;;;4977921;28;20465;-67
2021/06/28 09:42:54;;;;;;;2.40;2.20;;;36.70;59.70;;;;;;4978153;28;20483;-66
2021/06/28 09:45:24;;;;;;;2.10;1.63;;;37.30;58.70;;;;;;4978056;28;20481;-67
2021/06/28 09:47:51;;;;;;;1.93;1.87;;;37.30;58.80;;;;;;4978017;28;20465;-68
2021/06/28 09:50:20;;;;;;;1.73;1.63;;;37.20;57.70;;;;;;4978072;28;20813;-67
2021/06/28 09:52:50;;;;;;;2.00;2.00;;;37.00;58.80;;;;;;4978137;28;20864;-68
2021/06/28 09:55:20;;;;;;;1.90;1.80;;;36.30;62.50;;;;;;4978011;28;20438;-68
2021/06/28 09:58:08;;;;;;;2.20;2.10;;;36.60;64.80;;;;;;4978056;28;20489;-68
2021/06/28 10:00:39;;;;;;;2.50;2.30;;;36.50;62.20;;;;;;4977824;28;20486;-68
2021/06/28 10:03:06;;;;;;;1.70;1.70;;;36.20;66.10;;;;;;4977889;28;20442;-68
2021/06/28 10:05:38;;;;;;;2.30;2.20;;;36.00;66.20;;;;;;4977950;28;20488;-69
2021/06/28 10:08:14;;;;;;;2.60;2.40;;;35.70;61.90;;;;;;4982602;28;20801;-68
2021/06/28 10:10:41;;;;;;;2.77;2.20;;;35.80;66.20;;;;;;4977823;28;20481;-68
2021/06/28 10:13:09;;;;;;;2.13;2.03;;;35.80;67.60;;;;;;4977832;28;20457;-64
2021/06/28 10:15:40;;;;;;;2.73;2.53;;;35.40;68.80;;;;;;4977978;28;20450;-65
2021/06/28 10:18:08;;;;;;;2.27;2.27;;;35.60;66.40;;;;;;4977507;28;20932;-64
2021/06/28 10:20:38;;;;;;;1.80;1.80;;;36.20;60.60;;;;;;4977353;28;20516;-65
2021/06/28 10:23:06;;;;;;;2.43;2.13;;;35.80;61.50;;;;;;4977289;28;20458;-65
2021/06/28 10:25:33;;;;;;;2.17;2.13;;;35.90;62.20;;;;;;4977846;28;20556;-64
2021/06/28 10:28:00;;;;;;;2.57;2.47;;;36.40;62.00;;;;;;4977513;28;20469;-64
2021/06/28 10:30:29;;;;;;;2.00;1.90;;;36.50;65.70;;;;;;4977454;28;20450;-64
2021/06/28 10:33:07;;;;;;;2.40;2.20;;;36.20;62.90;;;;;;4977201;28;20481;-65
2021/06/28 10:35:37;;;;;;;1.93;1.83;;;36.00;61.50;;;;;;4977482;28;20898;-64
2021/06/28 10:38:08;;;;;;;1.60;1.60;;;36.20;63.10;;;;;;4977487;28;20454;-65
2021/06/28 10:40:51;;;;;;;2.93;1.80;;;36.70;58.00;;;;;;4977061;28;20478;-65
2021/06/28 10:43:24;;;;;;;2.23;2.10;;;37.20;59.80;;;;;;4977454;28;20445;-65
2021/06/28 10:45:51;;;;;;;2.30;2.20;;;37.70;62.20;;;;;;4977032;28;20489;-65
2021/06/28 10:48:23;;;;;;;2.13;2.03;;;38.00;62.70;;;;;;4977388;28;20458;-65
2021/06/28 10:50:57;;;;;;;2.90;2.80;;;38.00;57.80;;;;;;4977256;28;20475;-65
2021/06/28 10:54:00;;;;;;;2.30;2.23;;;38.70;59.70;;;;;;4977061;28;20444;-65
2021/06/28 10:56:55;;;;;;;2.70;2.00;;;38.40;56.00;;;;;;4976850;28;20465;-64
2021/06/28 10:59:47;;;;;;;2.17;2.07;;;38.20;59.40;;;;;;4976699;28;20443;-65
2021/06/28 11:02:14;;;;;;;2.20;2.10;;;37.20;58.80;;;;;;4976436;28;20482;-64
2021/06/28 11:04:55;;;;;;;2.77;2.37;;;36.80;61.50;;;;;;4977065;28;20478;-64
2021/06/28 11:07:22;;;;;;;2.37;2.27;;;37.00;60.50;;;;;;4977015;28;20438;-64
2021/06/28 11:09:52;;;;;;;2.53;2.43;;;36.00;64.10;;;;;;4977637;28;20461;-64
2021/06/28 11:12:30;;;;;;;2.53;2.33;;;36.60;61.20;;;;;;4976870;28;20481;-64
2021/06/28 11:14:59;;;;;;;1.90;1.90;;;36.30;65.90;;;;;;4977130;28;20438;-64
2021/06/28 11:17:40;;;;;;;2.40;2.30;;;36.10;64.90;;;;;;4976931;28;20800;-65
2021/06/28 11:20:19;;;;;;;2.10;2.10;;;36.60;62.60;;;;;;4976584;28;20898;-65
2021/06/28 11:22:54;;;;;;;2.60;2.50;;;36.40;63.70;;;;;;4976701;28;20447;-65
2021/06/28 11:25:26;;;;;;;2.50;2.40;;;36.30;63.70;;;;;;4976529;28;20470;-65
2021/06/28 11:28:21;;;;;;;2.30;2.30;;;35.90;63.00;;;;;;4976702;28;20847;-65
2021/06/28 11:31:00;;;;;;;2.03;1.93;;;35.40;62.50;;;;;;4974883;28;20482;-65
2021/06/28 11:33:48;;;;;;;3.30;2.60;;;34.90;64.50;;;;;;4978015;28;20438;-64
2021/06/28 11:36:38;;;;;;;3.07;2.87;;;34.50;69.80;;;;;;4978266;28;20430;-64
2021/06/28 11:39:21;;;;;;;2.50;2.40;;;34.70;65.70;;;;;;4981645;28;20901;-65
2021/06/28 11:42:26;;;;;;;2.67;2.57;;;34.10;67.50;;;;;;4977375;28;20466;-65
2021/06/28 11:44:59;;;;;;;2.43;2.33;;;33.80;72.50;;;;;;4976690;28;20466;-64
2021/06/28 11:48:07;;;;;;;2.90;2.60;;;33.40;70.40;;;;;;4976766;28;20510;-63
2021/06/28 11:50:36;;;;;;;2.80;2.70;;;33.50;72.20;;;;;;4972744;28;20489;-65
2021/06/28 11:53:05;;;;;;;2.80;2.70;;;33.20;74.80;;;;;;4976371;28;20454;-64
2021/06/28 11:55:33;;;;;;;2.73;2.63;;;33.20;74.50;;;;;;4976349;28;20458;-64
2021/06/28 11:58:02;;;;;;;2.77;2.57;;;33.20;72.30;;;;;;4976162;28;20465;-64
2021/06/28 12:00:29;;;;;;;3.47;3.17;;;33.10;71.30;;;;;;4975673;28;20458;-64
2021/06/28 12:03:13;;;;;;;2.73;2.53;;;33.20;72.20;;;;;;4975701;28;20468;-64
2021/06/28 12:05:42;;;;;;;2.87;2.67;;;33.20;73.80;;;;;;4975766;28;20486;-64
2021/06/28 12:08:10;;;;;;;2.40;2.20;;;33.20;71.80;;;;;;4976089;28;20945;-65
2021/06/28 12:10:37;;;;;;;2.80;2.70;;;33.30;73.60;;;;;;4976024;28;20479;-65
2021/06/28 12:13:05;;;;;;;2.90;2.70;;;33.40;70.70;;;;;;4975927;28;20454;-64
2021/06/28 12:15:32;;;;;;;3.00;2.80;;;33.20;74.80;;;;;;4975866;28;20816;-64
2021/06/28 12:18:05;;;;;;;2.63;2.53;;;33.40;74.90;;;;;;4975875;28;20459;-64
2021/06/28 12:20:35;;;;;;;2.83;2.63;;;33.70;75.50;;;;;;4975816;28;20894;-64
2021/06/28 12:23:09;;;;;;;4.30;2.43;;;33.90;76.10;;;;;;4976011;28;20872;-64
2021/06/28 12:25:36;;;;;;;2.70;2.60;;;33.80;70.50;;;;;;4975443;28;20521;-64
2021/06/28 12:28:04;;;;;;;2.63;2.40;;;33.70;77.40;;;;;;4976060;28;20438;-63
2021/06/28 12:30:32;;;;;;;3.27;3.07;;;33.70;75.90;;;;;;4975457;28;21027;-64
2021/06/28 12:32:59;;;;;;;3.13;2.63;;;33.90;75.40;;;;;;4975787;28;20449;-64
2021/06/28 12:35:28;;;;;;;3.13;2.30;;;33.20;73.10;;;;;;4975362;28;20450;-64
2021/06/28 12:37:56;;;;;;;3.13;2.80;;;33.40;76.10;;;;;;4975672;28;20458;-64
2021/06/28 12:40:28;;;;;;;2.40;2.30;;;33.40;73.90;;;;;;4975306;28;20455;-63
2021/06/28 12:42:58;;;;;;;2.60;2.50;;;33.20;76.10;;;;;;4979622;28;20918;-64
2021/06/28 12:45:33;;;;;;;3.27;2.97;;;33.30;76.30;;;;;;4980804;28;20482;-64
2021/06/28 12:48:02;;;;;;;2.90;2.70;;;33.40;75.70;;;;;;4980265;28;20453;-64
2021/06/28 12:50:31;;;;;;;2.83;2.73;;;33.80;75.00;;;;;;4985533;28;20836;-64
2021/06/28 12:52:57;;;;;;;2.83;2.73;;;33.90;72.70;;;;;;4981924;28;20443;-64
2021/06/28 12:55:26;;;;;;;2.60;2.40;;;34.10;74.00;;;;;;4978939;28;20461;-63
2021/06/28 12:58:07;;;;;;;3.00;2.80;;;34.10;73.60;;;;;;4978831;28;20828;-63
2021/06/28 13:00:38;;;;;;;2.60;2.50;;;33.50;74.60;;;;;;4979255;28;20497;-64
2021/06/28 13:03:11;;;;;;;3.07;2.77;;;33.30;76.50;;;;;;4979196;28;20439;-63
2021/06/28 13:05:44;;;;;;;4.93;3.00;;;33.00;77.50;;;;;;4978967;28;20850;-64
2021/06/28 13:08:14;;;;;;;5.23;3.20;;;32.90;78.30;;;;;;4978858;28;20438;-64
2021/06/28 13:10:41;;;;;;;3.77;3.47;;;32.70;77.90;;;;;;4986143;28;20475;-64
2021/06/28 13:13:22;;;;;;;4.00;3.30;;;32.70;78.30;;;;;;4980214;28;20811;-65
2021/06/28 13:16:15;;;;;;;3.13;2.93;;;32.90;79.10;;;;;;4978532;28;20441;-65
2021/06/28 13:18:51;;;;;;;3.00;2.90;;;32.80;78.90;;;;;;4978921;28;20442;-65
2021/06/28 13:21:18;;;;;;;3.10;3.00;;;32.60;78.50;;;;;;4978902;28;20550;-66
2021/06/28 13:23:49;;;;;;;3.20;2.90;;;32.40;79.40;;;;;;4978631;28;20454;-65
2021/06/28 13:26:25;;;;;;;11.50;2.77;;;32.30;81.60;;;;;;4978711;28;20517;-64
2021/06/28 13:28:53;;;;;;;3.30;3.10;;;32.30;81.70;;;;;;4978306;28;20442;-65
2021/06/28 13:31:22;;;;;;;3.10;3.00;;;32.30;84.10;;;;;;4978664;28;20478;-65
2021/06/28 13:34:02;;;;;;;3.47;2.90;;;32.40;82.90;;;;;;4978115;28;20461;-64
2021/06/28 13:36:28;;;;;;;4.10;3.10;;;32.00;80.50;;;;;;4978526;28;20493;-64
2021/06/28 13:38:55;;;;;;;3.60;3.40;;;31.90;82.90;;;;;;4977926;28;20478;-65
2021/06/28 13:41:22;;;;;;;3.03;2.93;;;32.00;81.80;;;;;;4978467;28;20485;-64
2021/06/28 13:43:49;;;;;;;5.00;3.40;;;31.50;82.30;;;;;;4978531;28;20818;-65
2021/06/28 13:46:29;;;;;;;3.47;3.17;;;31.50;83.50;;;;;;4978327;28;20842;-64
2021/06/28 13:48:56;;;;;;;2.87;2.77;;;31.60;85.10;;;;;;4978310;28;20469;-64
2021/06/28 13:51:22;;;;;;;3.00;2.90;;;31.70;83.70;;;;;;4978234;28;20485;-64
2021/06/28 13:53:50;;;;;;;3.60;3.23;;;31.70;83.30;;;;;;4977922;28;20461;-64
2021/06/28 13:56:16;;;;;;;3.23;3.13;;;31.60;84.30;;;;;;4978162;28;20486;-65
2021/06/28 13:58:44;;;;;;;3.47;3.33;;;31.80;82.60;;;;;;4978419;28;20458;-63
2021/06/28 14:01:11;;;;;;;3.40;3.13;;;32.10;83.60;;;;;;4978030;28;20489;-64
2021/06/28 14:03:39;;;;;;;3.40;3.20;;;32.40;83.50;;;;;;4978398;28;20817;-64
2021/06/28 14:06:06;;;;;;;3.40;3.20;;;32.70;84.50;;;;;;4977984;28;20489;-64
2021/06/28 14:08:32;;;;;;;3.40;3.17;;;32.10;81.20;;;;;;4977976;28;20454;-64
2021/06/28 14:10:59;;;;;;;3.60;3.50;;;31.80;83.50;;;;;;4978747;28;21015;-64
2021/06/28 14:13:26;;;;;;;5.77;3.70;;;32.00;84.50;;;;;;4978148;28;20465;-64
2021/06/28 14:15:53;;;;;;;5.43;3.50;;;31.70;83.30;;;;;;4978120;28;20451;-64
2021/06/28 14:18:20;;;;;;;5.63;3.93;;;32.00;84.10;;;;;;4977304;28;20961;-64
2021/06/28 14:20:49;;;;;;;3.70;3.50;;;31.70;86.70;;;;;;4977235;28;21008;-64
2021/06/28 14:23:15;;;;;;;4.03;3.83;;;31.90;84.10;;;;;;4977326;28;20470;-64
2021/06/28 14:25:42;;;;;;;3.30;3.20;;;31.60;84.80;;;;;;4978006;28;20482;-64
2021/06/28 14:28:09;;;;;;;4.37;4.07;;;31.50;85.60;;;;;;4977902;28;20446;-64
2021/06/28 14:30:36;;;;;;;3.90;3.60;;;31.50;86.20;;;;;;4977628;28;20491;-64
2021/06/28 14:33:03;;;;;;;4.30;4.00;;;31.70;86.00;;;;;;4977123;28;20462;-65
2021/06/28 14:35:32;;;;;;;4.93;4.53;;;31.70;85.40;;;;;;4977076;28;20486;-64
2021/06/28 14:38:01;;;;;;;3.67;3.37;;;31.60;85.50;;;;;;4977467;28;20450;-65
2021/06/28 14:40:28;;;;;;;3.93;3.73;;;31.70;86.50;;;;;;4977539;28;20814;-64
2021/06/28 14:42:55;;;;;;;3.60;3.50;;;31.70;86.00;;;;;;4986544;28;20482;-65
2021/06/28 14:45:21;;;;;;;3.77;3.47;;;31.70;87.30;;;;;;4980958;28;20483;-64
2021/06/28 14:47:48;;;;;;;4.50;4.20;;;31.60;85.70;;;;;;4977160;28;20459;-64
2021/06/28 14:50:15;;;;;;;3.40;3.30;;;31.60;86.40;;;;;;4977043;28;20467;-64
2021/06/28 14:52:42;;;;;;;4.07;3.87;;;31.60;87.90;;;;;;4977176;28;20458;-64
2021/06/28 14:55:12;;;;;;;16.83;4.50;;;31.50;88.20;;;;;;4977021;28;20869;-64
2021/06/28 14:57:39;;;;;;;4.50;4.10;;;31.50;88.80;;;;;;4978045;28;20494;-63
2021/06/28 15:00:07;;;;;;;3.77;3.57;;;31.60;88.20;;;;;;4976844;28;20450;-63
2021/06/28 15:02:34;;;;;;;3.97;3.77;;;31.60;89.30;;;;;;4976379;28;20493;-63
2021/06/28 15:05:01;;;;;;;3.87;3.67;;;31.30;88.60;;;;;;4976587;28;20466;-64
2021/06/28 15:07:28;;;;;;;3.90;3.70;;;31.40;86.60;;;;;;4976174;28;20482;-64
2021/06/28 15:09:55;;;;;;;4.60;4.30;;;31.30;86.40;;;;;;4977429;28;20801;-64
2021/06/28 15:12:25;;;;;;;4.57;4.17;;;31.10;90.00;;;;;;4976540;28;20566;-63
2021/06/28 15:14:52;;;;;;;4.43;4.10;;;31.10;88.60;;;;;;4976255;28;20551;-63
2021/06/28 15:17:19;;;;;;;4.43;4.23;;;31.00;89.90;;;;;;4976474;28;20447;-63
2021/06/28 15:19:46;;;;;;;5.33;4.30;;;31.10;90.20;;;;;;4976535;28;20802;-64
2021/06/28 15:22:13;;;;;;;3.37;3.20;;;31.00;89.50;;;;;;4976175;28;20479;-63
2021/06/28 15:24:41;;;;;;;3.57;3.47;;;30.80;90.10;;;;;;4976245;28;20509;-63
2021/06/28 15:27:08;;;;;;;3.70;3.50;;;30.50;90.30;;;;;;4975955;28;20843;-63
2021/06/28 15:29:38;;;;;;;4.07;3.80;;;30.30;90.50;;;;;;4976600;28;20455;-63
2021/06/28 15:32:06;;;;;;;5.47;4.23;;;30.40;90.60;;;;;;4976604;28;21063;-63
2021/06/28 15:34:33;;;;;;;3.97;3.77;;;30.10;90.80;;;;;;4976250;28;20454;-63
2021/06/28 15:36:59;;;;;;;4.13;3.83;;;29.90;90.90;;;;;;4976286;28;20473;-64
2021/06/28 15:39:26;;;;;;;5.37;5.07;;;29.70;91.20;;;;;;4976154;28;20969;-65
2021/06/28 15:41:53;;;;;;;4.77;4.47;;;29.40;91.50;;;;;;4975765;28;20486;-64
2021/06/28 15:44:19;;;;;;;4.40;4.17;;;29.40;92.10;;;;;;4976668;28;20466;-64
2021/06/28 15:46:48;;;;;;;3.87;3.50;;;29.40;92.40;;;;;;4975815;28;20997;-63
2021/06/28 15:49:15;;;;;;;4.00;3.80;;;29.30;92.40;;;;;;4976128;28;20461;-64
2021/06/28 15:51:42;;;;;;;4.00;3.77;;;29.20;92.40;;;;;;4976381;28;20485;-65
2021/06/28 15:54:09;;;;;;;3.80;3.60;;;29.20;93.10;;;;;;4976611;28;20455;-64
2021/06/28 15:56:36;;;;;;;4.00;3.80;;;29.00;92.80;;;;;;4976506;28;20521;-65
2021/06/28 15:59:03;;;;;;;4.87;3.37;;;28.90;93.40;;;;;;4975852;28;20458;-65
2021/06/28 16:01:31;;;;;;;4.63;3.93;;;28.90;93.80;;;;;;4975753;28;20497;-63
2021/06/28 16:03:59;;;;;;;4.20;3.23;;;28.90;94.00;;;;;;4974777;28;20944;-65
2021/06/28 16:06:26;;;;;;;4.57;3.77;;;29.00;93.90;;;;;;4975394;28;20481;-63
2021/06/28 16:08:54;;;;;;;4.87;4.37;;;29.00;94.30;;;;;;4975878;28;20454;-62
2021/06/28 16:11:21;;;;;;;3.90;3.70;;;29.00;94.50;;;;;;4976037;28;20474;-63
2021/06/28 16:13:47;;;;;;;8.17;3.77;;;29.00;94.50;;;;;;4982834;28;20455;-63
2021/06/28 16:16:14;;;;;;;3.70;3.50;;;29.00;94.30;;;;;;4985631;28;20446;-62
2021/06/28 16:18:41;;;;;;;5.43;3.87;;;28.90;94.20;;;;;;4980929;28;20964;-62
2021/06/28 16:21:10;;;;;;;4.77;4.37;;;28.80;94.20;;;;;;4982725;28;20564;-62
2021/06/28 16:23:37;;;;;;;3.37;3.17;;;28.80;94.10;;;;;;4982374;28;20458;-64
2021/06/28 16:26:03;;;;;;;4.53;4.10;;;28.70;94.10;;;;;;4982832;28;20477;-64
2021/06/28 16:28:30;;;;;;;6.80;6.27;;;28.40;94.10;;;;;;4982051;28;20438;-64
2021/06/28 16:30:57;;;;;;;6.93;6.27;;;28.30;94.70;;;;;;4982144;28;20479;-64
2021/06/28 16:33:23;;;;;;;10.50;9.57;;;28.30;93.90;;;;;;4982808;28;20465;-63
2021/06/28 16:35:51;;;;;;;3.57;3.30;;;28.30;93.60;;;;;;4982463;28;20458;-63
2021/06/28 16:38:20;;;;;;;41.77;38.80;;;28.20;93.10;;;;;;4982231;28;20462;-63
2021/06/28 16:40:47;;;;;;;43.27;40.23;;;28.20;94.00;;;;;;4981862;28;20974;-63
2021/06/28 16:43:13;;;;;;;68.20;63.47;;;28.10;94.00;;;;;;4982258;28;20466;-63
2021/06/28 16:45:40;;;;;;;32.60;30.47;;;28.00;94.40;;;;;;4981745;28;20459;-62
2021/06/28 16:48:08;;;;;;;19.87;18.47;;;28.00;94.50;;;;;;4982152;28;20474;-63
2021/06/28 16:50:35;;;;;;;67.37;62.97;;;27.90;94.60;;;;;;4982253;28;20454;-63
2021/06/28 16:53:02;;;;;;;97.73;91.53;;;27.80;95.00;;;;;;4981951;28;20481;-63
2021/06/28 16:55:30;;;;;;;6.37;5.97;;;27.80;96.00;;;;;;4982181;28;20550;-63
2021/06/28 16:57:56;;;;;;;29.33;27.43;;;27.80;95.40;;;;;;4981767;28;20450;-64